sensor_id;sensor_type;location;lat;lon;timestamp;temperature;humidity
57636;DHT22;43465;50.728;4.160;2023-04-01T00:02:16;9.80;99.90
57636;DHT22;43465;50.728;4.160;2023-04-01T00:05:19;9.80;99.90
57636;DHT22;43465;50.728;4.160;2023-04-01T00:08:03;9.80;99.90
57636;DHT22;43465;50.728;4.160;2023-04-01T00:10:58;9.80;99.90
57636;DHT22;43465;50.728;4.160;2023-04-01T00:13:53;9.80;99.90
57636;DHT22;43465;50.728;4.160;2023-04-01T00:16:44;9.80;99.90
57636;DHT22;43465;50.728;4.160;2023-04-01T00:19:13;9.90;99.90
57636;DHT22;43465;50.728;4.160;2023-04-01T00:21:40;9.80;99.90
57636;DHT22;43465;50.728;4.160;2023-04-01T00:24:10;9.80;99.90
57636;DHT22;43465;50.728;4.160;2023-04-01T00:53:41;9.80;99.90
57636;DHT22;43465;50.728;4.160;2023-04-01T00:56:35;9.70;99.90
57636;DHT22;43465;50.728;4.160;2023-04-01T00:59:05;9.60;99.90
57636;DHT22;43465;50.728;4.160;2023-04-01T01:01:34;9.60;99.90
57636;DHT22;43465;50.728;4.160;2023-04-01T01:04:01;9.50;99.90
57636;DHT22;43465;50.728;4.160;2023-04-01T01:06:53;9.60;99.90
57636;DHT22;43465;50.728;4.160;2023-04-01T01:12:24;9.50;99.90
57636;DHT22;43465;50.728;4.160;2023-04-01T01:18:03;9.50;99.90
57636;DHT22;43465;50.728;4.160;2023-04-01T01:28:51;9.40;99.90
57636;DHT22;43465;50.728;4.160;2023-04-01T01:31:27;9.40;99.90
57636;DHT22;43465;50.728;4.160;2023-04-01T01:36:42;9.40;99.90
57636;DHT22;43465;50.728;4.160;2023-04-01T01:39:11;9.40;99.90
57636;DHT22;43465;50.728;4.160;2023-04-01T01:41:39;9.40;99.90
57636;DHT22;43465;50.728;4.160;2023-04-01T01:44:08;9.40;99.90
57636;DHT22;43465;50.728;4.160;2023-04-01T01:46:36;9.40;99.90
57636;DHT22;43465;50.728;4.160;2023-04-01T01:49:04;9.40;99.90
57636;DHT22;43465;50.728;4.160;2023-04-01T01:51:30;9.50;99.90
57636;DHT22;43465;50.728;4.160;2023-04-01T01:53:56;9.40;99.90
57636;DHT22;43465;50.728;4.160;2023-04-01T01:56:24;9.40;99.90
57636;DHT22;43465;50.728;4.160;2023-04-01T01:59:01;9.40;99.90
57636;DHT22;43465;50.728;4.160;2023-04-01T02:01:31;9.40;99.90
57636;DHT22;43465;50.728;4.160;2023-04-01T02:03:58;9.50;99.90
57636;DHT22;43465;50.728;4.160;2023-04-01T02:06:28;9.50;99.90
57636;DHT22;43465;50.728;4.160;2023-04-01T02:08:59;9.50;99.90
57636;DHT22;43465;50.728;4.160;2023-04-01T02:11:33;9.50;99.90
57636;DHT22;43465;50.728;4.160;2023-04-01T02:14:06;9.50;99.90
57636;DHT22;43465;50.728;4.160;2023-04-01T02:16:36;9.50;99.90
57636;DHT22;43465;50.728;4.160;2023-04-01T02:19:05;9.50;99.90
57636;DHT22;43465;50.728;4.160;2023-04-01T02:21:33;9.50;99.90
57636;DHT22;43465;50.728;4.160;2023-04-01T02:24:03;9.50;99.90
57636;DHT22;43465;50.728;4.160;2023-04-01T02:26:30;9.50;99.90
57636;DHT22;43465;50.728;4.160;2023-04-01T02:28:56;9.60;99.90
57636;DHT22;43465;50.728;4.160;2023-04-01T02:31:23;9.50;99.90
57636;DHT22;43465;50.728;4.160;2023-04-01T02:33:50;9.60;99.90
57636;DHT22;43465;50.728;4.160;2023-04-01T02:36:16;9.60;99.90
57636;DHT22;43465;50.728;4.160;2023-04-01T02:38:44;9.60;99.90
57636;DHT22;43465;50.728;4.160;2023-04-01T02:41:11;9.60;99.90
57636;DHT22;43465;50.728;4.160;2023-04-01T02:43:37;9.60;99.90
57636;DHT22;43465;50.728;4.160;2023-04-01T02:46:03;9.60;99.90
57636;DHT22;43465;50.728;4.160;2023-04-01T02:48:28;9.70;99.90
57636;DHT22;43465;50.728;4.160;2023-04-01T02:50:54;9.70;99.90
57636;DHT22;43465;50.728;4.160;2023-04-01T02:53:20;9.80;99.90
57636;DHT22;43465;50.728;4.160;2023-04-01T02:55:45;9.90;99.90
57636;DHT22;43465;50.728;4.160;2023-04-01T02:58:11;10.00;99.90
57636;DHT22;43465;50.728;4.160;2023-04-01T03:00:37;10.00;99.90
57636;DHT22;43465;50.728;4.160;2023-04-01T03:03:03;9.90;99.90
57636;DHT22;43465;50.728;4.160;2023-04-01T03:05:29;9.90;99.90
57636;DHT22;43465;50.728;4.160;2023-04-01T03:07:55;9.90;99.90
57636;DHT22;43465;50.728;4.160;2023-04-01T03:10:21;9.90;99.90
57636;DHT22;43465;50.728;4.160;2023-04-01T03:12:47;10.00;99.90
57636;DHT22;43465;50.728;4.160;2023-04-01T03:15:13;9.90;99.90
57636;DHT22;43465;50.728;4.160;2023-04-01T03:17:41;9.90;99.90
57636;DHT22;43465;50.728;4.160;2023-04-01T03:20:08;10.00;99.90
57636;DHT22;43465;50.728;4.160;2023-04-01T03:22:34;10.00;99.90
57636;DHT22;43465;50.728;4.160;2023-04-01T03:25:01;9.90;99.90
57636;DHT22;43465;50.728;4.160;2023-04-01T03:27:28;9.90;99.90
57636;DHT22;43465;50.728;4.160;2023-04-01T03:29:53;9.90;99.90
57636;DHT22;43465;50.728;4.160;2023-04-01T03:32:19;9.90;99.90
57636;DHT22;43465;50.728;4.160;2023-04-01T03:34:45;9.90;99.90
57636;DHT22;43465;50.728;4.160;2023-04-01T03:37:10;9.90;99.90
57636;DHT22;43465;50.728;4.160;2023-04-01T03:39:36;9.90;99.90
57636;DHT22;43465;50.728;4.160;2023-04-01T03:42:02;9.80;99.90
57636;DHT22;43465;50.728;4.160;2023-04-01T03:44:31;9.80;99.90
57636;DHT22;43465;50.728;4.160;2023-04-01T03:46:57;9.80;99.90
57636;DHT22;43465;50.728;4.160;2023-04-01T03:49:23;9.70;99.90
57636;DHT22;43465;50.728;4.160;2023-04-01T03:51:49;9.70;99.90
57636;DHT22;43465;50.728;4.160;2023-04-01T03:54:14;9.80;99.90
57636;DHT22;43465;50.728;4.160;2023-04-01T03:56:40;9.80;99.90
57636;DHT22;43465;50.728;4.160;2023-04-01T03:59:07;9.80;99.90
57636;DHT22;43465;50.728;4.160;2023-04-01T04:01:33;9.80;99.90
57636;DHT22;43465;50.728;4.160;2023-04-01T04:03:59;9.80;99.90
57636;DHT22;43465;50.728;4.160;2023-04-01T04:06:26;9.80;99.90
57636;DHT22;43465;50.728;4.160;2023-04-01T04:08:52;9.80;99.90
57636;DHT22;43465;50.728;4.160;2023-04-01T04:11:19;9.80;99.90
57636;DHT22;43465;50.728;4.160;2023-04-01T04:13:45;9.80;99.90
57636;DHT22;43465;50.728;4.160;2023-04-01T04:16:13;9.80;99.90
57636;DHT22;43465;50.728;4.160;2023-04-01T04:18:39;9.70;99.90
57636;DHT22;43465;50.728;4.160;2023-04-01T04:21:04;9.70;99.90
57636;DHT22;43465;50.728;4.160;2023-04-01T04:23:30;9.70;99.90
57636;DHT22;43465;50.728;4.160;2023-04-01T04:26:04;9.70;99.90
57636;DHT22;43465;50.728;4.160;2023-04-01T04:28:31;9.70;99.90
57636;DHT22;43465;50.728;4.160;2023-04-01T04:30:57;9.70;99.90
57636;DHT22;43465;50.728;4.160;2023-04-01T04:33:23;9.70;99.90
57636;DHT22;43465;50.728;4.160;2023-04-01T04:35:49;9.70;99.90
57636;DHT22;43465;50.728;4.160;2023-04-01T04:38:16;9.70;99.90
57636;DHT22;43465;50.728;4.160;2023-04-01T04:40:42;9.70;99.90
57636;DHT22;43465;50.728;4.160;2023-04-01T04:43:10;9.70;99.90
57636;DHT22;43465;50.728;4.160;2023-04-01T04:45:36;9.70;99.90
57636;DHT22;43465;50.728;4.160;2023-04-01T04:48:02;9.70;99.90
57636;DHT22;43465;50.728;4.160;2023-04-01T04:50:27;9.70;99.90
57636;DHT22;43465;50.728;4.160;2023-04-01T04:52:53;9.60;99.90
57636;DHT22;43465;50.728;4.160;2023-04-01T04:55:19;9.60;99.90
57636;DHT22;43465;50.728;4.160;2023-04-01T04:57:45;9.60;99.90
57636;DHT22;43465;50.728;4.160;2023-04-01T05:00:11;9.70;99.90
57636;DHT22;43465;50.728;4.160;2023-04-01T05:02:37;9.60;99.90
57636;DHT22;43465;50.728;4.160;2023-04-01T05:05:03;9.60;99.90
57636;DHT22;43465;50.728;4.160;2023-04-01T05:07:29;9.70;99.90
57636;DHT22;43465;50.728;4.160;2023-04-01T05:09:55;9.70;99.90
57636;DHT22;43465;50.728;4.160;2023-04-01T05:12:21;9.70;99.90
57636;DHT22;43465;50.728;4.160;2023-04-01T05:14:47;9.80;99.90
57636;DHT22;43465;50.728;4.160;2023-04-01T05:17:13;9.80;99.90
57636;DHT22;43465;50.728;4.160;2023-04-01T05:19:39;9.80;99.90
57636;DHT22;43465;50.728;4.160;2023-04-01T05:22:05;9.80;99.90
57636;DHT22;43465;50.728;4.160;2023-04-01T05:24:31;9.80;99.90
57636;DHT22;43465;50.728;4.160;2023-04-01T05:26:58;9.80;99.90
57636;DHT22;43465;50.728;4.160;2023-04-01T05:29:24;9.80;99.90
57636;DHT22;43465;50.728;4.160;2023-04-01T05:31:50;9.80;99.90
57636;DHT22;43465;50.728;4.160;2023-04-01T05:34:16;9.80;99.90
57636;DHT22;43465;50.728;4.160;2023-04-01T05:36:42;9.80;99.90
57636;DHT22;43465;50.728;4.160;2023-04-01T05:39:09;9.80;99.90
57636;DHT22;43465;50.728;4.160;2023-04-01T05:41:35;9.70;99.90
57636;DHT22;43465;50.728;4.160;2023-04-01T05:44:01;9.70;99.90
57636;DHT22;43465;50.728;4.160;2023-04-01T05:46:27;9.70;99.90
57636;DHT22;43465;50.728;4.160;2023-04-01T05:48:53;9.70;99.90
57636;DHT22;43465;50.728;4.160;2023-04-01T05:51:19;9.70;99.90
57636;DHT22;43465;50.728;4.160;2023-04-01T05:53:45;9.70;99.90
57636;DHT22;43465;50.728;4.160;2023-04-01T05:56:10;9.70;99.90
57636;DHT22;43465;50.728;4.160;2023-04-01T05:58:37;9.70;99.90
57636;DHT22;43465;50.728;4.160;2023-04-01T06:01:09;9.70;99.90
57636;DHT22;43465;50.728;4.160;2023-04-01T06:03:35;9.70;99.90
57636;DHT22;43465;50.728;4.160;2023-04-01T06:06:01;9.80;99.90
57636;DHT22;43465;50.728;4.160;2023-04-01T06:08:30;9.70;99.90
57636;DHT22;43465;50.728;4.160;2023-04-01T06:14:11;9.60;99.90
57636;DHT22;43465;50.728;4.160;2023-04-01T06:20:06;9.70;99.90
57636;DHT22;43465;50.728;4.160;2023-04-01T06:36:11;9.70;99.90
57636;DHT22;43465;50.728;4.160;2023-04-01T06:44:49;9.90;99.90
57636;DHT22;43465;50.728;4.160;2023-04-01T06:50:36;9.90;99.90
57636;DHT22;43465;50.728;4.160;2023-04-01T06:53:14;9.80;99.90
57636;DHT22;43465;50.728;4.160;2023-04-01T06:55:44;9.80;99.90
57636;DHT22;43465;50.728;4.160;2023-04-01T06:58:21;9.90;99.90
57636;DHT22;43465;50.728;4.160;2023-04-01T07:00:53;10.00;99.90
57636;DHT22;43465;50.728;4.160;2023-04-01T07:05:57;9.90;99.90
57636;DHT22;43465;50.728;4.160;2023-04-01T07:08:27;9.80;99.90
57636;DHT22;43465;50.728;4.160;2023-04-01T07:11:01;9.80;99.90
57636;DHT22;43465;50.728;4.160;2023-04-01T07:18:37;10.00;99.90
57636;DHT22;43465;50.728;4.160;2023-04-01T07:21:13;9.90;99.90
57636;DHT22;43465;50.728;4.160;2023-04-01T07:23:44;9.90;99.90
57636;DHT22;43465;50.728;4.160;2023-04-01T07:26:20;9.90;99.90
57636;DHT22;43465;50.728;4.160;2023-04-01T07:28:51;9.90;99.90
57636;DHT22;43465;50.728;4.160;2023-04-01T07:34:01;9.90;99.90
57636;DHT22;43465;50.728;4.160;2023-04-01T07:36:43;9.90;99.90
57636;DHT22;43465;50.728;4.160;2023-04-01T07:39:18;9.90;99.90
57636;DHT22;43465;50.728;4.160;2023-04-01T07:44:54;9.90;99.90
57636;DHT22;43465;50.728;4.160;2023-04-01T07:55:46;10.10;99.90
57636;DHT22;43465;50.728;4.160;2023-04-01T08:01:24;10.20;99.90
57636;DHT22;43465;50.728;4.160;2023-04-01T08:04:39;10.20;99.90
57636;DHT22;43465;50.728;4.160;2023-04-01T08:12:59;10.30;99.90
57636;DHT22;43465;50.728;4.160;2023-04-01T08:16:05;10.40;99.90
57636;DHT22;43465;50.728;4.160;2023-04-01T08:18:46;10.50;99.90
57636;DHT22;43465;50.728;4.160;2023-04-01T08:21:23;10.60;99.90
57636;DHT22;43465;50.728;4.160;2023-04-01T08:23:52;10.60;99.90
57636;DHT22;43465;50.728;4.160;2023-04-01T08:29:12;10.50;99.90
57636;DHT22;43465;50.728;4.160;2023-04-01T08:34:30;10.40;99.90
57636;DHT22;43465;50.728;4.160;2023-04-01T08:37:02;10.50;99.90
57636;DHT22;43465;50.728;4.160;2023-04-01T08:39:44;10.40;99.90
57636;DHT22;43465;50.728;4.160;2023-04-01T08:47:42;10.40;99.90
57636;DHT22;43465;50.728;4.160;2023-04-01T08:50:51;10.40;99.90
57636;DHT22;43465;50.728;4.160;2023-04-01T09:00:01;10.40;99.90
57636;DHT22;43465;50.728;4.160;2023-04-01T09:07:55;10.50;99.90
57636;DHT22;43465;50.728;4.160;2023-04-01T09:15:57;10.50;99.90
57636;DHT22;43465;50.728;4.160;2023-04-01T09:18:34;10.60;99.90
57636;DHT22;43465;50.728;4.160;2023-04-01T09:40:14;10.90;99.90
57636;DHT22;43465;50.728;4.160;2023-04-01T09:42:42;11.00;99.90
57636;DHT22;43465;50.728;4.160;2023-04-01T09:45:35;11.10;99.90
57636;DHT22;43465;50.728;4.160;2023-04-01T09:51:28;11.00;99.90
57636;DHT22;43465;50.728;4.160;2023-04-01T10:02:46;11.10;99.90
57636;DHT22;43465;50.728;4.160;2023-04-01T10:20:17;11.20;99.90
57636;DHT22;43465;50.728;4.160;2023-04-01T10:29:02;10.90;99.90
57636;DHT22;43465;50.728;4.160;2023-04-01T10:48:39;11.30;99.90
57636;DHT22;43465;50.728;4.160;2023-04-01T10:59:36;11.10;99.90
57636;DHT22;43465;50.728;4.160;2023-04-01T11:05:40;11.50;99.90
57636;DHT22;43465;50.728;4.160;2023-04-01T11:11:27;11.60;99.90
57636;DHT22;43465;50.728;4.160;2023-04-01T11:22:14;11.50;99.90
57636;DHT22;43465;50.728;4.160;2023-04-01T11:36:25;11.50;99.90
57636;DHT22;43465;50.728;4.160;2023-04-01T11:44:29;11.60;99.90
57636;DHT22;43465;50.728;4.160;2023-04-01T11:47:19;11.50;99.90
57636;DHT22;43465;50.728;4.160;2023-04-01T11:50:18;11.50;99.90
57636;DHT22;43465;50.728;4.160;2023-04-01T11:56:01;11.70;99.90
57636;DHT22;43465;50.728;4.160;2023-04-01T11:58:56;11.80;99.90
57636;DHT22;43465;50.728;4.160;2023-04-01T12:02:11;11.80;99.90
57636;DHT22;43465;50.728;4.160;2023-04-01T12:10:19;12.00;99.90
57636;DHT22;43465;50.728;4.160;2023-04-01T12:13:22;11.90;99.90
57636;DHT22;43465;50.728;4.160;2023-04-01T12:26:35;11.60;99.90
57636;DHT22;43465;50.728;4.160;2023-04-01T12:35:18;11.40;99.90
57636;DHT22;43465;50.728;4.160;2023-04-01T13:06:29;11.40;99.90
57636;DHT22;43465;50.728;4.160;2023-04-01T13:14:39;10.90;99.90
57636;DHT22;43465;50.728;4.160;2023-04-01T13:17:23;10.90;99.90
57636;DHT22;43465;50.728;4.160;2023-04-01T13:20:03;10.90;99.90
57636;DHT22;43465;50.728;4.160;2023-04-01T13:28:27;10.90;99.90
57636;DHT22;43465;50.728;4.160;2023-04-01T13:32:04;10.90;99.90
57636;DHT22;43465;50.728;4.160;2023-04-01T13:42:37;10.70;99.90
57636;DHT22;43465;50.728;4.160;2023-04-01T13:45:16;10.70;99.90
57636;DHT22;43465;50.728;4.160;2023-04-01T13:59:38;10.90;99.90
57636;DHT22;43465;50.728;4.160;2023-04-01T14:07:48;10.90;99.90
57636;DHT22;43465;50.728;4.160;2023-04-01T14:16:07;10.90;99.90
57636;DHT22;43465;50.728;4.160;2023-04-01T14:24:20;10.90;99.90
57636;DHT22;43465;50.728;4.160;2023-04-01T14:27:13;10.90;99.90
57636;DHT22;43465;50.728;4.160;2023-04-01T14:32:33;10.60;99.90
57636;DHT22;43465;50.728;4.160;2023-04-01T14:35:30;10.60;99.90
57636;DHT22;43465;50.728;4.160;2023-04-01T14:49:52;10.50;99.90
57636;DHT22;43465;50.728;4.160;2023-04-01T14:54:48;10.60;99.90
57636;DHT22;43465;50.728;4.160;2023-04-01T14:57:28;10.60;99.90
57636;DHT22;43465;50.728;4.160;2023-04-01T15:00:27;10.70;99.90
57636;DHT22;43465;50.728;4.160;2023-04-01T15:03:11;10.70;99.90
57636;DHT22;43465;50.728;4.160;2023-04-01T15:05:55;10.70;99.90
57636;DHT22;43465;50.728;4.160;2023-04-01T15:08:33;10.70;99.90
57636;DHT22;43465;50.728;4.160;2023-04-01T15:11:23;10.60;99.90
57636;DHT22;43465;50.728;4.160;2023-04-01T15:16:41;10.60;99.90
57636;DHT22;43465;50.728;4.160;2023-04-01T15:22:42;10.60;99.90
57636;DHT22;43465;50.728;4.160;2023-04-01T15:27:55;10.60;99.90
57636;DHT22;43465;50.728;4.160;2023-04-01T15:33:13;10.70;99.90
57636;DHT22;43465;50.728;4.160;2023-04-01T15:38:30;10.60;99.90
57636;DHT22;43465;50.728;4.160;2023-04-01T15:41:19;10.60;99.90
57636;DHT22;43465;50.728;4.160;2023-04-01T15:43:49;10.60;99.90
57636;DHT22;43465;50.728;4.160;2023-04-01T15:46:48;10.60;99.90
57636;DHT22;43465;50.728;4.160;2023-04-01T15:49:43;10.50;99.90
57636;DHT22;43465;50.728;4.160;2023-04-01T16:00:30;10.20;99.90
57636;DHT22;43465;50.728;4.160;2023-04-01T16:03:15;10.00;99.90
57636;DHT22;43465;50.728;4.160;2023-04-01T16:06:10;9.70;99.90
57636;DHT22;43465;50.728;4.160;2023-04-01T16:09:11;9.50;99.90
57636;DHT22;43465;50.728;4.160;2023-04-01T16:17:08;9.60;99.90
57636;DHT22;43465;50.728;4.160;2023-04-01T16:19:44;9.70;99.90
57636;DHT22;43465;50.728;4.160;2023-04-01T16:22:23;9.70;99.90
57636;DHT22;43465;50.728;4.160;2023-04-01T16:25:26;9.80;99.90
57636;DHT22;43465;50.728;4.160;2023-04-01T16:33:59;9.70;99.90
57636;DHT22;43465;50.728;4.160;2023-04-01T16:36:41;9.60;99.90
57636;DHT22;43465;50.728;4.160;2023-04-01T16:44:50;9.50;99.90
57636;DHT22;43465;50.728;4.160;2023-04-01T16:47:21;9.40;99.90
57636;DHT22;43465;50.728;4.160;2023-04-01T16:49:59;9.50;99.90
57636;DHT22;43465;50.728;4.160;2023-04-01T16:52:42;9.50;99.90
57636;DHT22;43465;50.728;4.160;2023-04-01T16:55:41;9.70;99.90
57636;DHT22;43465;50.728;4.160;2023-04-01T16:58:10;9.80;99.90
57636;DHT22;43465;50.728;4.160;2023-04-01T17:01:07;9.90;99.90
57636;DHT22;43465;50.728;4.160;2023-04-01T17:03:39;10.00;99.90
57636;DHT22;43465;50.728;4.160;2023-04-01T17:12:17;10.10;99.90
57636;DHT22;43465;50.728;4.160;2023-04-01T17:33:05;10.50;99.90
57636;DHT22;43465;50.728;4.160;2023-04-01T17:35:40;10.50;99.90
57636;DHT22;43465;50.728;4.160;2023-04-01T17:41:19;10.30;99.90
57636;DHT22;43465;50.728;4.160;2023-04-01T17:47:06;10.10;99.90
57636;DHT22;43465;50.728;4.160;2023-04-01T17:57:52;9.80;99.90
57636;DHT22;43465;50.728;4.160;2023-04-01T18:01:04;9.80;99.90
57636;DHT22;43465;50.728;4.160;2023-04-01T18:06:19;9.80;99.90
57636;DHT22;43465;50.728;4.160;2023-04-01T18:23:30;9.80;99.90
57636;DHT22;43465;50.728;4.160;2023-04-01T18:26:25;9.90;99.90
57636;DHT22;43465;50.728;4.160;2023-04-01T18:29:35;9.90;99.90
57636;DHT22;43465;50.728;4.160;2023-04-01T18:35:01;9.80;99.90
57636;DHT22;43465;50.728;4.160;2023-04-01T18:37:37;9.80;99.90
57636;DHT22;43465;50.728;4.160;2023-04-01T18:40:35;9.80;99.90
57636;DHT22;43465;50.728;4.160;2023-04-01T18:43:19;9.80;99.90
57636;DHT22;43465;50.728;4.160;2023-04-01T18:45:57;9.70;99.90
57636;DHT22;43465;50.728;4.160;2023-04-01T18:48:51;9.70;99.90
57636;DHT22;43465;50.728;4.160;2023-04-01T18:51:44;9.70;99.90
57636;DHT22;43465;50.728;4.160;2023-04-01T18:54:31;9.70;99.90
57636;DHT22;43465;50.728;4.160;2023-04-01T18:57:07;9.70;99.90
57636;DHT22;43465;50.728;4.160;2023-04-01T18:59:46;9.70;99.90
57636;DHT22;43465;50.728;4.160;2023-04-01T19:05:07;9.70;99.90
57636;DHT22;43465;50.728;4.160;2023-04-01T19:21:39;9.60;99.90
57636;DHT22;43465;50.728;4.160;2023-04-01T19:30:02;9.60;99.90
57636;DHT22;43465;50.728;4.160;2023-04-01T19:38:52;9.50;99.90
57636;DHT22;43465;50.728;4.160;2023-04-01T19:44:31;9.40;99.90
57636;DHT22;43465;50.728;4.160;2023-04-01T19:49:38;9.50;99.90
57636;DHT22;43465;50.728;4.160;2023-04-01T19:52:32;9.50;99.90
57636;DHT22;43465;50.728;4.160;2023-04-01T19:55:31;9.50;99.90
57636;DHT22;43465;50.728;4.160;2023-04-01T20:00:53;9.40;99.90
57636;DHT22;43465;50.728;4.160;2023-04-01T20:06:37;9.40;99.90
57636;DHT22;43465;50.728;4.160;2023-04-01T20:14:24;9.40;99.90
57636;DHT22;43465;50.728;4.160;2023-04-01T20:22:02;9.40;99.90
57636;DHT22;43465;50.728;4.160;2023-04-01T20:24:50;9.40;99.90
57636;DHT22;43465;50.728;4.160;2023-04-01T20:27:21;9.40;99.90
57636;DHT22;43465;50.728;4.160;2023-04-01T20:30:27;9.50;99.90
57636;DHT22;43465;50.728;4.160;2023-04-01T20:53:07;9.50;99.90
57636;DHT22;43465;50.728;4.160;2023-04-01T21:04:37;9.50;99.90
57636;DHT22;43465;50.728;4.160;2023-04-01T21:13:10;9.50;99.90
57636;DHT22;43465;50.728;4.160;2023-04-01T21:26:48;9.50;99.90
57636;DHT22;43465;50.728;4.160;2023-04-01T21:37:18;9.50;99.90
57636;DHT22;43465;50.728;4.160;2023-04-01T21:40:18;9.50;99.90
57636;DHT22;43465;50.728;4.160;2023-04-01T22:00:08;9.60;99.90
57636;DHT22;43465;50.728;4.160;2023-04-01T22:08:44;9.60;99.90
57636;DHT22;43465;50.728;4.160;2023-04-01T22:16:42;9.60;99.90
57636;DHT22;43465;50.728;4.160;2023-04-01T22:19:23;9.70;99.90
57636;DHT22;43465;50.728;4.160;2023-04-01T22:22:02;9.70;99.90
57636;DHT22;43465;50.728;4.160;2023-04-01T22:27:24;9.70;99.90
57636;DHT22;43465;50.728;4.160;2023-04-01T22:30:00;9.70;99.90
57636;DHT22;43465;50.728;4.160;2023-04-01T22:32:30;9.80;99.90
57636;DHT22;43465;50.728;4.160;2023-04-01T22:43:15;9.80;99.90
57636;DHT22;43465;50.728;4.160;2023-04-01T22:48:17;9.80;99.90
57636;DHT22;43465;50.728;4.160;2023-04-01T22:56:26;9.80;99.90
57636;DHT22;43465;50.728;4.160;2023-04-01T22:59:00;9.80;99.90
57636;DHT22;43465;50.728;4.160;2023-04-01T23:01:32;9.80;99.90
57636;DHT22;43465;50.728;4.160;2023-04-01T23:04:03;9.80;99.90
57636;DHT22;43465;50.728;4.160;2023-04-01T23:06:35;9.80;99.90
57636;DHT22;43465;50.728;4.160;2023-04-01T23:09:11;9.80;99.90
57636;DHT22;43465;50.728;4.160;2023-04-01T23:19:57;9.80;99.90
57636;DHT22;43465;50.728;4.160;2023-04-01T23:27:53;9.80;99.90
57636;DHT22;43465;50.728;4.160;2023-04-01T23:33:22;9.80;99.90
57636;DHT22;43465;50.728;4.160;2023-04-01T23:35:56;9.80;99.90
57636;DHT22;43465;50.728;4.160;2023-04-01T23:38:34;9.80;99.90
57636;DHT22;43465;50.728;4.160;2023-04-01T23:41:00;9.90;99.90
57636;DHT22;43465;50.728;4.160;2023-04-01T23:43:30;9.90;99.90
57636;DHT22;43465;50.728;4.160;2023-04-01T23:46:00;10.00;99.90
57636;DHT22;43465;50.728;4.160;2023-04-01T23:48:39;10.00;99.90
57636;DHT22;43465;50.728;4.160;2023-04-01T23:51:20;10.00;99.90
57636;DHT22;43465;50.728;4.160;2023-04-01T23:53:47;10.00;99.90
57636;DHT22;43465;50.728;4.160;2023-04-01T23:56:20;10.00;99.90
57636;DHT22;43465;50.728;4.160;2023-04-01T23:58:49;10.00;99.90
